createdAt,value
2023-10-15T00:00:24.729Z,99177.59
2023-10-15T00:03:27.600Z,99170.59
2023-10-15T00:06:32.366Z,99167.06
2023-10-15T00:09:35.297Z,99171.25
2023-10-15T00:12:38.636Z,99164.91
2023-10-15T00:15:41.574Z,99163.22
2023-10-15T00:18:44.400Z,99164.22
2023-10-15T00:21:49.011Z,99153.53
2023-10-15T00:24:51.881Z,99149.03
2023-10-15T00:27:56.010Z,99145.53
2023-10-15T00:31:02.006Z,99158.72
2023-10-15T00:34:13.422Z,99156.88
2023-10-15T00:37:17.680Z,99148.38
2023-10-15T00:40:21.403Z,99148.19
2023-10-15T00:43:24.313Z,99147.19
2023-10-15T00:46:29.087Z,99152.53
2023-10-15T00:49:35.072Z,99150.69
2023-10-15T00:52:43.607Z,99147.38
2023-10-15T00:55:47.132Z,99145.53
2023-10-15T00:59:09.439Z,99138.16
2023-10-15T01:02:13.522Z,99132.34
2023-10-15T01:05:17.912Z,99122.97
2023-10-15T01:08:29.933Z,99122.47
2023-10-15T01:11:32.787Z,99116.28
2023-10-15T01:14:39.526Z,99129.13
2023-10-15T01:17:42.981Z,99127.28
2023-10-15T01:20:45.869Z,99121.13
2023-10-15T01:24:02.204Z,99113.28
2023-10-15T01:27:10.320Z,99112.25
2023-10-15T01:30:18.619Z,99115.63
2023-10-15T01:33:21.691Z,99105.91
2023-10-15T01:36:28.746Z,99110.44
2023-10-15T01:39:39.296Z,99103.94
2023-10-15T01:42:44.367Z,99100.56
2023-10-15T01:45:48.829Z,99098.59
2023-10-15T01:48:51.860Z,99099.72
2023-10-15T01:51:56.443Z,99093.38
2023-10-15T01:55:05.228Z,99096.94
2023-10-15T01:58:13.638Z,99089.03
2023-10-15T02:01:21.959Z,99086.53
2023-10-15T02:04:27.007Z,99083.88
2023-10-15T02:07:32.346Z,99090.06
2023-10-15T02:10:36.927Z,99089.56
2023-10-15T02:13:42.100Z,99076.69
2023-10-15T02:16:50.462Z,99070.34
2023-10-15T02:19:56.520Z,99066.00
2023-10-15T02:22:59.598Z,99059.66
2023-10-15T02:26:02.746Z,99059.00
2023-10-15T02:29:08.818Z,99062.97
2023-10-15T02:32:22.503Z,99056.78
2023-10-15T02:35:32.351Z,99054.13
2023-10-15T02:38:38.116Z,99045.28
2023-10-15T02:41:43.182Z,99047.94
2023-10-15T02:44:52.131Z,99039.94
2023-10-15T02:47:56.876Z,99044.28
2023-10-15T02:51:08.378Z,99032.91
2023-10-15T02:54:28.062Z,99046.94
2023-10-15T02:57:31.649Z,99034.41
2023-10-15T03:00:37.668Z,99028.41
2023-10-15T03:03:49.561Z,99023.72
2023-10-15T03:06:52.535Z,99026.75
2023-10-15T03:09:58.429Z,99031.91
2023-10-15T03:13:02.991Z,99017.72
2023-10-15T03:16:08.636Z,99016.88
2023-10-15T03:19:20.069Z,99008.03
2023-10-15T03:22:25.220Z,99018.91
2023-10-15T03:25:29.557Z,99009.53
2023-10-15T03:28:36.100Z,99009.34
2023-10-15T03:31:47.107Z,99006.69
2023-10-15T03:35:01.295Z,99004.72
2023-10-15T03:38:07.344Z,99004.88
2023-10-15T03:41:22.753Z,98996.88
2023-10-15T03:44:29.116Z,99006.03
2023-10-15T03:47:33.381Z,99001.19
2023-10-15T03:50:54.797Z,99008.03
2023-10-15T03:54:07.924Z,99005.19
2023-10-15T03:57:10.928Z,99004.53
2023-10-15T04:00:18.270Z,99007.38
2023-10-15T04:03:24.499Z,99000.19
2023-10-15T04:06:27.420Z,98995.81
2023-10-15T04:09:35.008Z,99005.19
2023-10-15T04:12:42.036Z,99000.84
2023-10-15T04:15:44.881Z,98999.50
2023-10-15T04:18:49.185Z,98996.81
2023-10-15T04:22:00.574Z,98995.16
2023-10-15T04:25:07.582Z,98991.81
2023-10-15T04:28:12.902Z,98986.13
2023-10-15T04:31:22.987Z,98987.97
2023-10-15T04:34:27.884Z,99000.28
2023-10-15T04:37:35.888Z,98989.59
2023-10-15T04:40:51.484Z,98996.94
2023-10-15T04:43:56.042Z,98988.75
2023-10-15T04:47:06.338Z,98993.94
2023-10-15T04:50:16.294Z,98991.91
2023-10-15T04:53:25.492Z,98992.44
2023-10-15T04:56:28.617Z,98994.94
2023-10-15T04:59:31.480Z,98996.13
2023-10-15T05:02:35.297Z,98995.75
2023-10-15T05:05:39.707Z,98982.06
2023-10-15T05:08:43.439Z,98987.41
2023-10-15T05:11:46.326Z,98989.06
2023-10-15T05:14:50.361Z,98991.44
2023-10-15T05:17:53.247Z,98990.25
2023-10-15T05:20:57.852Z,98983.56
2023-10-15T05:24:03.842Z,98982.06
2023-10-15T05:27:06.707Z,98980.22
2023-10-15T05:30:11.282Z,98975.88
2023-10-15T05:33:14.344Z,98972.22
2023-10-15T05:36:18.583Z,98983.25
2023-10-15T05:39:21.387Z,98977.06
2023-10-15T05:42:24.186Z,98975.38
2023-10-15T05:45:26.983Z,98971.72
2023-10-15T05:48:29.777Z,98968.69
2023-10-15T05:51:34.925Z,98962.69
2023-10-15T05:54:37.711Z,98958.19
2023-10-15T05:57:40.679Z,98959.69
2023-10-15T06:00:43.559Z,98972.53
2023-10-15T06:03:48.263Z,98968.03
2023-10-15T06:06:53.528Z,98961.00
2023-10-15T06:09:56.461Z,98965.00
2023-10-15T06:12:59.251Z,98960.34
2023-10-15T06:16:03.039Z,98970.72
2023-10-15T06:19:06.408Z,98965.84
2023-10-15T06:22:10.655Z,98963.66
2023-10-15T06:25:14.393Z,98964.00
2023-10-15T06:28:17.382Z,98964.84
2023-10-15T06:31:20.196Z,98962.69
2023-10-15T06:34:23.100Z,98966.69
2023-10-15T06:37:28.472Z,98969.69
2023-10-15T06:40:33.106Z,98960.34
2023-10-15T06:43:38.037Z,98960.03
2023-10-15T06:46:41.167Z,98951.31
2023-10-15T06:49:44.112Z,98952.31
2023-10-15T06:52:48.643Z,98949.50
2023-10-15T06:55:52.538Z,98944.66
2023-10-15T06:58:56.043Z,98949.81
2023-10-15T07:01:59.026Z,98953.34
2023-10-15T07:05:02.964Z,98947.00
2023-10-15T07:08:07.688Z,98950.66
2023-10-15T07:11:10.682Z,98950.66
2023-10-15T07:14:13.696Z,98949.00
2023-10-15T07:17:18.046Z,98939.16
2023-10-15T07:20:22.958Z,98943.66
2023-10-15T07:23:27.819Z,98932.97
2023-10-15T07:26:31.621Z,98937.50
2023-10-15T07:29:34.901Z,98929.47
2023-10-15T07:32:37.760Z,98937.50
2023-10-15T07:35:41.617Z,98931.31
2023-10-15T07:38:46.446Z,98933.97
2023-10-15T07:41:49.392Z,98923.31
2023-10-15T07:44:52.411Z,98910.97
2023-10-15T07:47:55.393Z,98916.31
2023-10-15T07:50:58.225Z,98914.28
2023-10-15T07:54:04.665Z,98916.97
2023-10-15T07:57:08.700Z,98914.28
2023-10-15T08:00:16.445Z,98911.63
2023-10-15T08:03:19.650Z,98904.63
2023-10-15T08:06:25.296Z,98894.44
2023-10-15T08:09:31.154Z,98891.75
2023-10-15T08:12:34.016Z,98888.09
2023-10-15T08:15:37.686Z,98880.59
2023-10-15T08:18:40.737Z,98879.59
2023-10-15T08:21:44.831Z,98881.09
2023-10-15T08:24:49.000Z,98869.56
2023-10-15T08:27:51.934Z,98870.41
2023-10-15T08:30:55.851Z,98864.09
2023-10-15T08:33:58.748Z,98859.41
2023-10-15T08:37:01.544Z,98855.75
2023-10-15T08:40:06.548Z,98848.38
2023-10-15T08:43:13.270Z,98839.38
2023-10-15T08:46:16.545Z,98837.22
2023-10-15T08:49:20.770Z,98827.53
2023-10-15T08:52:24.315Z,98824.53
2023-10-15T08:55:28.688Z,98821.84
2023-10-15T08:58:32.041Z,98819.88
2023-10-15T09:01:35.640Z,98814.66
2023-10-15T09:04:38.784Z,98801.31
2023-10-15T09:07:41.760Z,98815.34
2023-10-15T09:10:46.144Z,98817.84
2023-10-15T09:13:51.901Z,98815.19
2023-10-15T09:16:57.855Z,98805.16
2023-10-15T09:20:02.026Z,98808.84
2023-10-15T09:23:05.191Z,98806.81
2023-10-15T09:26:09.849Z,98805.81
2023-10-15T09:29:22.071Z,98797.81
2023-10-15T09:32:26.302Z,98790.66
2023-10-15T09:35:30.797Z,98797.81
2023-10-15T09:38:34.124Z,98785.16
2023-10-15T09:41:38.507Z,98784.16
2023-10-15T09:44:41.405Z,98788.50
2023-10-15T09:47:49.630Z,98788.31
2023-10-15T09:50:55.045Z,98779.16
2023-10-15T09:54:01.001Z,98767.47
2023-10-15T09:57:07.077Z,98762.94
2023-10-15T10:00:20.398Z,98768.28
2023-10-15T10:03:53.829Z,98772.28
2023-10-15T10:07:11.587Z,98758.09
2023-10-15T10:10:27.684Z,98754.25
2023-10-15T10:13:51.576Z,98753.41
2023-10-15T10:16:57.058Z,98753.91
2023-10-15T10:20:12.130Z,98733.34
2023-10-15T10:23:15.750Z,98731.50
2023-10-15T10:26:20.882Z,98730.34
2023-10-15T10:29:27.067Z,98725.66
2023-10-15T10:32:31.421Z,98722.63
2023-10-15T10:35:44.309Z,98718.31
2023-10-15T10:38:55.165Z,98716.31
2023-10-15T10:42:00.346Z,98715.31
2023-10-15T10:45:03.224Z,98706.28
2023-10-15T10:48:07.689Z,98699.75
2023-10-15T10:51:14.179Z,98700.75
2023-10-15T10:54:26.710Z,98692.38
2023-10-15T10:57:32.845Z,98696.88
2023-10-15T11:00:35.673Z,98695.91
2023-10-15T11:03:41.553Z,98703.56
2023-10-15T11:06:46.823Z,98702.50
2023-10-15T11:09:51.233Z,98690.47
2023-10-15T11:12:54.099Z,98691.97
2023-10-15T11:15:56.946Z,98688.94
2023-10-15T11:19:01.133Z,98689.66
2023-10-15T11:22:05.206Z,98672.78
2023-10-15T11:25:15.627Z,98667.75
2023-10-15T11:28:20.114Z,98661.81
2023-10-15T11:31:23.100Z,98664.81
2023-10-15T11:34:29.582Z,98662.97
2023-10-15T11:37:36.332Z,98653.16
2023-10-15T11:40:39.883Z,98660.44
2023-10-15T11:43:44.817Z,98650.44
2023-10-15T11:46:48.810Z,98643.75
2023-10-15T11:49:53.165Z,98630.78
2023-10-15T11:52:56.793Z,98634.44
2023-10-15T11:55:59.799Z,98643.28
2023-10-15T11:59:02.841Z,98646.63
2023-10-15T12:02:05.743Z,98645.91
2023-10-15T12:05:10.837Z,98650.44
2023-10-15T12:08:14.648Z,98652.44
2023-10-15T12:11:19.681Z,98640.44
2023-10-15T12:14:22.615Z,98642.47
2023-10-15T12:17:25.598Z,98637.63
2023-10-15T12:20:30.085Z,98641.13
2023-10-15T12:23:33.005Z,98638.47
2023-10-15T12:26:35.796Z,98634.97
2023-10-15T12:29:40.311Z,98635.44
2023-10-15T12:32:47.337Z,98625.56
2023-10-15T12:35:52.619Z,98625.13
2023-10-15T12:38:55.737Z,98625.13
2023-10-15T12:41:59.962Z,98622.44
2023-10-15T12:45:02.774Z,98623.91
2023-10-15T12:48:06.605Z,98617.75
2023-10-15T12:51:11.657Z,98620.59
2023-10-15T12:54:14.909Z,98606.53
2023-10-15T12:57:17.825Z,98617.34
2023-10-15T13:00:22.635Z,98609.97
2023-10-15T13:03:26.643Z,98609.09
2023-10-15T13:06:30.826Z,98608.00
2023-10-15T13:09:34.883Z,98612.06
2023-10-15T13:12:37.757Z,98606.03
2023-10-15T13:15:40.578Z,98612.41
2023-10-15T13:18:43.463Z,98609.53
2023-10-15T13:21:47.751Z,98607.88
2023-10-15T13:24:50.571Z,98602.91
2023-10-15T13:27:53.476Z,98604.75
2023-10-15T13:30:56.533Z,98608.59
2023-10-15T13:33:59.437Z,98601.25
2023-10-15T13:37:05.341Z,98596.59
2023-10-15T13:40:11.080Z,98597.44
2023-10-15T13:43:13.888Z,98595.94
2023-10-15T13:46:16.717Z,98595.78
2023-10-15T13:49:19.990Z,98598.63
2023-10-15T13:52:24.268Z,98599.84
2023-10-15T13:55:27.162Z,98594.81
2023-10-15T13:58:30.545Z,98603.47
2023-10-15T14:01:34.225Z,98593.63
2023-10-15T14:04:37.171Z,98588.47
2023-10-15T14:07:41.789Z,98590.13
2023-10-15T14:10:44.678Z,98598.31
2023-10-15T14:13:47.862Z,98598.50
2023-10-15T14:16:50.905Z,98594.03
2023-10-15T14:19:56.017Z,98604.47
2023-10-15T14:23:00.319Z,98602.63
2023-10-15T14:26:03.449Z,98614.53
2023-10-15T14:29:06.759Z,98602.50
2023-10-15T14:32:09.774Z,98610.53
2023-10-15T14:35:13.023Z,98604.16
2023-10-15T14:38:17.249Z,98603.97
2023-10-15T14:41:20.335Z,98606.53
2023-10-15T14:44:24.259Z,98601.19
2023-10-15T14:47:28.214Z,98600.34
2023-10-15T14:50:31.451Z,98603.19
2023-10-15T14:53:35.746Z,98615.53
2023-10-15T14:56:38.604Z,98616.38
2023-10-15T15:02:51.997Z,98610.56
2023-10-15T15:05:54.855Z,98607.06
2023-10-15T15:08:57.681Z,98615.38
2023-10-15T15:12:00.484Z,98620.25
2023-10-15T15:15:03.664Z,98625.75
2023-10-15T15:18:07.995Z,98629.31
2023-10-15T15:21:10.866Z,98632.28
2023-10-15T15:24:17.065Z,98635.63
2023-10-15T15:27:19.954Z,98627.78
2023-10-15T15:30:23.135Z,98624.97
2023-10-15T15:33:28.507Z,98631.81
2023-10-15T15:36:31.366Z,98636.47
2023-10-15T15:39:34.184Z,98640.34
2023-10-15T15:42:38.696Z,98636.66
2023-10-15T15:45:41.735Z,98635.78
2023-10-15T15:48:46.679Z,98629.31
2023-10-15T15:51:51.565Z,98630.53
2023-10-15T15:54:57.272Z,98634.34
2023-10-15T15:58:00.090Z,98627.00
2023-10-15T16:01:03.718Z,98627.16
2023-10-15T16:04:08.827Z,98622.34
2023-10-15T16:07:11.979Z,98627.00
2023-10-15T16:10:15.884Z,98621.81
2023-10-15T16:13:18.947Z,98627.16
2023-10-15T16:16:23.113Z,98627.31
2023-10-15T16:19:27.332Z,98624.66
2023-10-15T16:22:30.276Z,98626.34
2023-10-15T16:25:33.480Z,98628.00
2023-10-15T16:28:36.363Z,98620.00
2023-10-15T16:31:39.223Z,98624.66
2023-10-15T16:34:43.573Z,98614.81
2023-10-15T16:37:46.457Z,98622.16
2023-10-15T16:40:49.366Z,98619.31
2023-10-15T16:43:52.236Z,98611.94
2023-10-15T16:46:57.704Z,98612.97
2023-10-15T16:50:02.272Z,98610.59
2023-10-15T16:53:09.799Z,98606.28
2023-10-15T16:56:14.988Z,98597.25
2023-10-15T16:59:18.036Z,98593.94
2023-10-15T17:02:21.006Z,98588.59
2023-10-15T17:05:25.598Z,98594.78
2023-10-15T17:08:30.577Z,98582.91
2023-10-15T17:11:33.409Z,98572.38
2023-10-15T17:14:36.277Z,98577.94
2023-10-15T17:17:39.206Z,98573.94
2023-10-15T17:20:43.471Z,98569.09
2023-10-15T17:23:47.329Z,98566.06
2023-10-15T17:26:50.179Z,98561.22
2023-10-15T17:30:13.635Z,98568.59
2023-10-15T17:33:16.824Z,98569.22
2023-10-15T17:36:23.381Z,98564.06
2023-10-15T17:39:28.129Z,98564.59
2023-10-15T17:42:31.041Z,98560.56
2023-10-15T17:45:34.097Z,98551.59
2023-10-15T17:48:36.973Z,98555.91
2023-10-15T17:51:42.039Z,98558.59
2023-10-15T17:54:45.745Z,98554.91
2023-10-15T17:57:48.617Z,98550.91
2023-10-15T18:00:51.589Z,98557.75
2023-10-15T18:03:54.932Z,98547.09
2023-10-15T18:07:00.132Z,98543.22
2023-10-15T18:10:02.983Z,98549.91
2023-10-15T18:13:05.898Z,98548.75
2023-10-15T18:16:08.867Z,98553.44
2023-10-15T18:19:11.704Z,98547.41
2023-10-15T18:22:15.903Z,98545.44
2023-10-15T18:25:18.679Z,98540.59
2023-10-15T18:28:21.934Z,98535.06
2023-10-15T18:31:25.093Z,98525.59
2023-10-15T18:34:29.610Z,98527.56
2023-10-15T18:37:34.048Z,98522.59
2023-10-15T18:40:36.969Z,98515.25
2023-10-15T18:43:40.045Z,98526.09
2023-10-15T18:46:42.945Z,98522.91
2023-10-15T18:49:45.808Z,98522.25
2023-10-15T18:52:49.984Z,98515.09
2023-10-15T18:55:52.841Z,98520.53
2023-10-15T18:58:57.496Z,98516.38
2023-10-15T19:02:00.489Z,98507.09
2023-10-15T19:05:03.459Z,98505.06
2023-10-15T19:08:08.533Z,98504.56
2023-10-15T19:11:14.754Z,98500.88
2023-10-15T19:14:17.809Z,98499.22
2023-10-15T19:17:20.581Z,98491.91
2023-10-15T19:20:24.175Z,98484.22
2023-10-15T19:23:28.378Z,98482.38
2023-10-15T19:26:31.486Z,98483.56
2023-10-15T19:29:34.353Z,98484.41
2023-10-15T19:32:37.193Z,98488.41
2023-10-15T19:35:39.987Z,98483.91
2023-10-15T19:38:44.155Z,98477.88
2023-10-15T19:41:46.973Z,98486.91
2023-10-15T19:44:49.801Z,98486.06
2023-10-15T19:47:53.978Z,98483.22
2023-10-15T19:50:56.912Z,98488.56
2023-10-15T19:54:01.203Z,98482.38
2023-10-15T19:57:04.251Z,98483.56
2023-10-15T20:00:19.557Z,98480.25
2023-10-15T20:03:22.897Z,98476.88
2023-10-15T20:06:26.202Z,98470.38
2023-10-15T20:09:30.581Z,98470.69
2023-10-15T20:12:33.872Z,98465.81
2023-10-15T20:15:36.754Z,98469.63
2023-10-15T20:18:39.558Z,98454.56
2023-10-15T20:21:42.536Z,98451.09
2023-10-15T20:24:47.421Z,98454.50
2023-10-15T20:27:50.509Z,98448.97
2023-10-15T20:30:53.642Z,98458.00
2023-10-15T20:33:56.755Z,98434.78
2023-10-15T20:36:59.711Z,98437.16
2023-10-15T20:40:12.365Z,98434.50
2023-10-15T20:43:15.218Z,98421.97
2023-10-15T20:46:18.085Z,98419.75
2023-10-15T20:49:20.990Z,98419.56
2023-10-15T20:52:23.822Z,98424.75
2023-10-15T20:55:28.091Z,98408.72
2023-10-15T20:58:30.975Z,98408.88
2023-10-15T21:01:33.927Z,98404.22
2023-10-15T21:04:36.869Z,98397.84
2023-10-15T21:07:40.433Z,98398.50
2023-10-15T21:10:44.738Z,98382.66
2023-10-15T21:13:47.555Z,98397.50
2023-10-15T21:16:50.382Z,98384.13
2023-10-15T21:19:55.987Z,98376.94
2023-10-15T21:22:59.922Z,98381.38
2023-10-15T21:26:04.092Z,98375.66
2023-10-15T21:29:07.011Z,98376.34
2023-10-15T21:32:09.853Z,98371.72
2023-10-15T21:35:12.736Z,98368.22
2023-10-15T21:38:15.588Z,98367.19
2023-10-15T21:41:19.829Z,98360.00
2023-10-15T21:44:22.650Z,98361.50
2023-10-15T21:47:25.525Z,98350.19
2023-10-15T21:50:28.482Z,98348.88
2023-10-15T21:53:31.299Z,98338.50
2023-10-15T21:56:35.943Z,98338.00
2023-10-15T21:59:38.798Z,98335.97
2023-10-15T22:02:41.715Z,98322.19
2023-10-15T22:05:45.002Z,98321.47
2023-10-15T22:08:47.838Z,98315.09
2023-10-15T22:11:53.465Z,98316.59
2023-10-15T22:14:58.518Z,98309.22
2023-10-15T22:18:04.330Z,98302.38
2023-10-15T22:21:07.935Z,98292.69
2023-10-15T22:24:23.288Z,98296.38
2023-10-15T22:27:27.529Z,98294.75
2023-10-15T22:30:39.080Z,98282.41
2023-10-15T22:33:42.413Z,98283.22
2023-10-15T22:36:45.247Z,98277.88
2023-10-15T22:39:48.259Z,98281.38
2023-10-15T22:42:52.487Z,98277.88
2023-10-15T22:45:55.305Z,98275.00
2023-10-15T22:48:58.165Z,98268.50
2023-10-15T22:52:01.177Z,98265.22
2023-10-15T22:55:04.623Z,98267.38
2023-10-15T22:58:08.899Z,98264.06
2023-10-15T23:01:20.179Z,98266.81
2023-10-15T23:04:23.231Z,98248.28
2023-10-15T23:07:26.197Z,98252.81
2023-10-15T23:10:29.430Z,98243.97
2023-10-15T23:13:34.678Z,98245.00
2023-10-15T23:16:40.776Z,98233.09
2023-10-15T23:19:43.854Z,98230.59
2023-10-15T23:22:47.064Z,98229.97
2023-10-15T23:25:53.323Z,98226.91
2023-10-15T23:28:57.952Z,98221.78
2023-10-15T23:32:00.897Z,98218.28
2023-10-15T23:35:03.812Z,98214.97
2023-10-15T23:38:08.653Z,98215.88
2023-10-15T23:41:12.287Z,98197.63
2023-10-15T23:44:20.890Z,98201.13
2023-10-15T23:47:23.805Z,98190.34
2023-10-15T23:50:32.421Z,98184.56
2023-10-15T23:53:36.579Z,98191.56
2023-10-15T23:56:43.149Z,98189.50
2023-10-15T23:59:47.782Z,98184.38
